Time;durP1;ratioP1;P1;durP2;ratioP2;P2;SDS_P1;SDS_P2;PMS_P1;PMS_P2;Temp;Humidity;BMP_temperature;BMP_pressure;BME280_temperature;BME280_humidity;BME280_pressure;Samples;Min_cycle;Max_cycle;Signal;HPM_P1;HPM_P2
2022/05/22 04:18:56;;;;;;;15.60;8.32;;;9.00;99.90;;;;;;4933872;29;20064;-80
2022/05/22 04:21:22;;;;;;;18.48;8.77;;;;;;;;;;4903046;29;20067;-79
2022/05/22 04:26:33;;;;;;;16.00;8.80;;;;;;;;;;4919112;29;20086;-80
2022/05/22 04:28:59;;;;;;;14.77;8.40;;;9.70;99.90;;;;;;4918925;29;20058;-80
2022/05/22 04:31:25;;;;;;;12.70;8.05;;;;;;;;;;4936177;29;20414;-80
2022/05/22 04:33:51;;;;;;;12.30;7.47;;;;;;;;;;4918679;29;20058;-80
2022/05/22 04:36:17;;;;;;;14.85;8.50;;;;;;;;;;4918898;29;20051;-80
2022/05/22 04:38:43;;;;;;;16.45;7.82;;;;;;;;;;4934803;29;20063;-80
2022/05/22 04:41:09;;;;;;;12.13;7.30;;;12.30;99.90;;;;;;4918827;29;20430;-80
2022/05/22 04:43:35;;;;;;;12.00;6.72;;;;;;;;;;4918732;29;20063;-80
2022/05/22 04:46:00;;;;;;;11.57;7.15;;;13.30;99.90;;;;;;4918234;29;20060;-80
2022/05/22 04:48:28;;;;;;;11.30;6.68;;;13.70;99.90;;;;;;4903366;29;20068;-80
2022/05/22 04:50:54;;;;;;;10.95;6.63;;;13.70;99.90;;;;;;4919087;29;20517;-80
2022/05/22 04:53:22;;;;;;;9.18;5.78;;;14.40;99.90;;;;;;4918589;29;20102;-80
2022/05/22 04:55:48;;;;;;;9.40;5.72;;;15.30;99.90;;;;;;4918505;29;20048;-81
2022/05/22 04:58:15;;;;;;;11.43;6.00;;;14.10;99.90;;;;;;4938666;29;20127;-80
2022/05/22 05:00:41;;;;;;;10.10;5.40;;;15.30;99.90;;;;;;4939121;29;20056;-80
2022/05/22 05:03:06;;;;;;;9.57;5.20;;;16.10;99.90;;;;;;4933640;29;20142;-80
2022/05/22 05:05:32;;;;;;;9.10;4.78;;;18.30;99.90;;;;;;4941631;29;20058;-81
2022/05/22 05:07:58;;;;;;;10.85;4.97;;;17.40;99.90;;;;;;4941425;29;20064;-81
2022/05/22 05:10:24;;;;;;;9.98;4.68;;;17.50;99.90;;;;;;4958351;29;20417;-81
2022/05/22 05:12:50;;;;;;;9.63;4.82;;;18.10;99.90;;;;;;4925125;29;20051;-81
2022/05/22 05:15:18;;;;;;;9.48;4.85;;;19.00;99.90;;;;;;4941147;29;20059;-81
2022/05/22 05:17:45;;;;;;;8.13;4.28;;;19.00;99.90;;;;;;4940544;29;20120;-81
2022/05/22 05:20:16;;;;;;;7.93;4.78;;;19.50;99.90;;;;;;4940766;29;20055;-81
2022/05/22 05:22:43;;;;;;;10.18;4.75;;;20.20;99.90;;;;;;4941039;29;20383;-81
2022/05/22 05:25:10;;;;;;;10.07;4.90;;;20.50;99.90;;;;;;4925238;29;20058;-81
2022/05/22 05:27:36;;;;;;;8.50;4.60;;;20.80;99.10;;;;;;4940482;29;20063;-81
2022/05/22 05:30:02;;;;;;;9.52;4.82;;;21.50;96.80;;;;;;4924692;29;20111;-81
2022/05/22 05:32:28;;;;;;;8.85;4.90;;;22.10;94.70;;;;;;4940751;29;20086;-81
2022/05/22 05:35:06;;;;;;;8.40;4.65;;;22.50;91.10;;;;;;4940791;29;20051;-81
2022/05/22 05:37:32;;;;;;;11.57;4.57;;;22.30;83.60;;;;;;4940863;29;20058;-81
2022/05/22 05:39:58;;;;;;;9.88;4.72;;;25.70;83.10;;;;;;4940482;29;20418;-81
2022/05/22 05:42:24;;;;;;;9.48;4.40;;;24.00;76.90;;;;;;4940815;29;20114;-81
2022/05/22 05:44:50;;;;;;;8.77;4.38;;;24.50;72.20;;;;;;4924667;29;20052;-81
2022/05/22 05:47:16;;;;;;;7.30;4.28;;;24.90;69.90;;;;;;4940858;29;20387;-81
2022/05/22 05:49:42;;;;;;;9.43;4.47;;;28.20;69.60;;;;;;4940520;29;20062;-81
2022/05/22 05:52:08;;;;;;;15.68;4.40;;;28.70;67.60;;;;;;4940567;29;20062;-80
2022/05/22 05:54:34;;;;;;;11.38;4.60;;;25.90;62.90;;;;;;4940443;29;20051;-81
2022/05/22 05:56:59;;;;;;;8.75;4.88;;;26.10;60.80;;;;;;4940340;29;20066;-81
2022/05/22 05:59:26;;;;;;;10.68;5.20;;;27.40;60.30;;;;;;4939817;29;20146;-81
2022/05/22 06:01:52;;;;;;;12.45;5.10;;;26.70;58.40;;;;;;4940259;29;20060;-81
2022/05/22 06:04:18;;;;;;;11.20;5.50;;;26.70;56.70;;;;;;4957106;29;20062;-81
2022/05/22 06:06:44;;;;;;;13.73;6.50;;;29.80;57.10;;;;;;4924007;29;20051;-81
2022/05/22 06:09:09;;;;;;;15.02;5.95;;;27.60;54.70;;;;;;4939905;29;20062;-81
2022/05/22 06:11:35;;;;;;;16.05;5.82;;;27.90;54.00;;;;;;4940197;29;20063;-81
2022/05/22 06:14:01;;;;;;;12.23;5.07;;;30.30;54.70;;;;;;4939809;29;20501;-81
2022/05/22 06:16:26;;;;;;;12.48;5.18;;;28.20;52.40;;;;;;4924399;29;20055;-81
2022/05/22 06:18:52;;;;;;;15.43;4.57;;;28.20;57.70;;;;;;4957372;29;20051;-80
2022/05/22 06:21:19;;;;;;;11.90;4.20;;;28.40;51.10;;;;;;4939746;29;20051;-80
2022/05/22 06:23:46;;;;;;;13.40;4.43;;;27.90;54.90;;;;;;4940496;29;20055;-80
2022/05/22 06:26:15;;;;;;;9.93;3.90;;;28.70;49.50;;;;;;4957214;29;20051;-79
2022/05/22 06:28:41;;;;;;;11.73;4.20;;;28.80;48.50;;;;;;4939831;29;20489;-81
2022/05/22 06:31:08;;;;;;;13.30;4.07;;;28.90;49.00;;;;;;4939624;29;20054;-79
2022/05/22 06:33:34;;;;;;;14.13;4.13;;;29.00;48.40;;;;;;4939475;29;20059;-79
2022/05/22 06:36:06;;;;;;;13.88;3.72;;;31.90;49.70;;;;;;4939721;29;20061;-79
2022/05/22 06:41:16;;;;;;;13.38;4.43;;;29.20;46.80;;;;;;4939252;29;20181;-78
2022/05/22 06:43:42;;;;;;;14.82;4.07;;;30.50;47.20;;;;;;4923286;29;20134;-80
2022/05/22 06:46:08;;;;;;;12.65;3.83;;;29.10;54.10;;;;;;4939186;29;20083;-79
2022/05/22 06:48:33;;;;;;;10.98;3.60;;;28.60;45.20;;;;;;4938864;29;20059;-79
2022/05/22 06:50:59;;;;;;;10.43;3.80;;;29.50;52.40;;;;;;4938040;29;20061;-79
2022/05/22 06:53:25;;;;;;;15.93;4.57;;;29.70;53.40;;;;;;4938897;29;20059;-80
2022/05/22 06:55:50;;;;;;;15.55;4.43;;;29.60;44.80;;;;;;4923296;29;20520;-80
2022/05/22 06:58:16;;;;;;;12.75;4.10;;;29.60;52.10;;;;;;4923303;29;20051;-80
2022/05/22 07:00:41;;;;;;;13.88;4.13;;;30.80;45.30;;;;;;4932983;29;20048;-80
2022/05/22 07:03:07;;;;;;;12.05;4.25;;;29.50;53.10;;;;;;4938787;29;20087;-80
2022/05/22 07:05:33;;;;;;;11.52;4.43;;;;;;;;;;4939024;29;20066;-79
2022/05/22 07:07:59;;;;;;;13.27;4.25;;;;;;;;;;4957050;29;20442;-79
2022/05/22 07:13:11;;;;;;;13.50;4.88;;;29.30;53.20;;;;;;4938952;29;20059;-79
2022/05/22 07:15:40;;;;;;;12.75;3.65;;;29.00;52.90;;;;;;4956011;29;20047;-79
2022/05/22 07:18:06;;;;;;;11.00;3.80;;;30.00;47.40;;;;;;4923137;29;20051;-80
2022/05/22 07:20:31;;;;;;;11.65;4.25;;;28.30;55.40;;;;;;4955835;28;20417;-80
2022/05/22 07:22:57;;;;;;;9.25;3.75;;;28.50;49.10;;;;;;4907384;29;20062;-79
2022/05/22 07:25:23;;;;;;;12.77;3.80;;;28.20;49.00;;;;;;4939470;29;20087;-80
2022/05/22 07:27:51;;;;;;;12.77;3.47;;;30.90;52.00;;;;;;4938773;29;20451;-80
2022/05/22 07:30:17;;;;;;;12.65;3.95;;;27.80;50.10;;;;;;4938549;29;20117;-79
2022/05/22 07:32:43;;;;;;;10.27;3.30;;;27.40;50.90;;;;;;4938785;29;20063;-80
2022/05/22 07:35:09;;;;;;;9.95;3.40;;;27.10;51.00;;;;;;4955209;29;20050;-79
2022/05/22 07:37:34;;;;;;;13.50;3.80;;;26.60;57.40;;;;;;4955581;29;20071;-79
2022/05/22 07:40:00;;;;;;;11.93;3.50;;;25.70;51.90;;;;;;4922587;29;20060;-79
2022/05/22 07:42:26;;;;;;;10.35;3.60;;;28.90;54.10;;;;;;4938654;29;20514;-79
2022/05/22 07:44:51;;;;;;;11.73;3.80;;;26.20;53.10;;;;;;4938871;29;20478;-79
2022/05/22 07:47:17;;;;;;;13.05;3.80;;;28.40;55.60;;;;;;4928606;29;20054;-79
2022/05/22 07:52:27;;;;;;;13.80;3.50;;;25.80;61.10;;;;;;4920063;29;20079;-81
2022/05/22 07:54:52;;;;;;;9.75;3.60;;;25.70;55.20;;;;;;4936703;29;20055;-82
2022/05/22 07:57:18;;;;;;;10.73;3.70;;;26.90;56.10;;;;;;4919943;29;20056;-78
2022/05/22 07:59:44;;;;;;;13.60;3.70;;;;;;;;;;4936963;29;20490;-80
2022/05/22 08:02:12;;;;;;;14.23;3.70;;;25.60;54.10;;;;;;4904063;29;20094;-81
2022/05/22 08:04:40;;;;;;;11.27;3.50;;;25.90;54.10;;;;;;4919826;29;20486;-81
2022/05/22 08:07:06;;;;;;;16.50;3.70;;;;;;;;;;4922283;29;20082;-80
2022/05/22 08:09:31;;;;;;;13.65;3.97;;;25.70;53.90;;;;;;4912138;29;20055;-80
2022/05/22 08:11:57;;;;;;;13.10;4.00;;;25.60;59.90;;;;;;4953664;29;20058;-80
2022/05/22 08:14:23;;;;;;;12.02;4.20;;;25.30;62.40;;;;;;4919929;29;20051;-80
2022/05/22 08:16:51;;;;;;;11.45;3.65;;;25.50;61.10;;;;;;4916372;29;20051;-80
2022/05/22 08:19:18;;;;;;;11.23;4.00;;;27.20;60.00;;;;;;4936465;29;20094;-80
2022/05/22 08:21:44;;;;;;;10.98;3.65;;;;;;;;;;4956972;28;20066;-77
2022/05/22 08:24:10;;;;;;;12.10;3.90;;;;;;;;;;4957319;28;20445;-80
2022/05/22 08:26:37;;;;;;;11.23;3.80;;;;;;;;;;4958576;28;20103;-80
2022/05/22 08:29:03;;;;;;;10.52;3.20;;;;;;;;;;4929252;29;20552;-79
2022/05/22 08:31:29;;;;;;;13.30;3.58;;;;;;;;;;4956715;28;20058;-78
2022/05/22 08:33:56;;;;;;;11.70;3.55;;;;;;;;;;4927410;29;20058;-79
2022/05/22 08:36:22;;;;;;;11.85;3.42;;;;;;;;;;4962093;29;20055;-80
2022/05/22 08:38:48;;;;;;;10.60;3.25;;;;;;;;;;4958932;29;20115;-80
2022/05/22 08:41:21;;;;;;;13.13;3.60;;;23.60;64.20;;;;;;4954741;29;20051;-80
2022/05/22 08:44:20;;;;;;;10.95;3.08;;;24.10;58.10;;;;;;4926437;29;20065;-80
2022/05/22 08:47:00;;;;;;;11.02;3.05;;;24.50;65.20;;;;;;4916429;29;20055;-81
2022/05/22 08:50:03;;;;;;;13.02;3.05;;;24.10;58.30;;;;;;4941992;29;20142;-81
2022/05/22 08:52:47;;;;;;;11.73;3.55;;;24.10;57.00;;;;;;4936992;29;20047;-79
2022/05/22 08:55:18;;;;;;;9.32;3.05;;;23.70;59.00;;;;;;4940200;29;20055;-80
2022/05/22 09:00:43;;;;;;;8.82;3.13;;;;;;;;;;4939945;29;20059;-80
2022/05/22 09:03:25;;;;;;;12.82;3.17;;;23.80;60.40;;;;;;4939221;29;20554;-79
2022/05/22 09:05:56;;;;;;;8.73;3.38;;;23.90;68.90;;;;;;4906962;29;20147;-79
2022/05/22 09:08:37;;;;;;;9.77;3.03;;;26.30;65.20;;;;;;4939931;29;20056;-79
2022/05/22 09:11:40;;;;;;;10.52;3.10;;;26.10;65.10;;;;;;4938737;29;20495;-81
2022/05/22 09:14:23;;;;;;;11.68;3.08;;;23.10;62.80;;;;;;4906797;29;20452;-81
2022/05/22 09:17:17;;;;;;;11.85;2.90;;;22.80;69.40;;;;;;4923003;29;20438;-81
2022/05/22 09:20:13;;;;;;;11.43;3.10;;;23.50;64.10;;;;;;4906694;29;20051;-81
2022/05/22 09:23:03;;;;;;;9.45;3.10;;;24.10;62.50;;;;;;4907015;29;20055;-81
2022/05/22 09:25:29;;;;;;;10.60;3.22;;;;;;;;;;4907362;29;20062;-81
2022/05/22 09:28:23;;;;;;;10.63;3.05;;;22.90;65.60;;;;;;4923874;29;20402;-84
2022/05/22 09:31:13;;;;;;;9.77;2.60;;;23.00;65.30;;;;;;4952255;29;20386;-81
2022/05/22 09:33:55;;;;;;;10.95;3.08;;;23.80;66.10;;;;;;4943274;29;20051;-81
2022/05/22 09:36:58;;;;;;;12.30;2.60;;;23.00;63.60;;;;;;4927867;29;20615;-80
2022/05/22 09:39:46;;;;;;;12.25;2.92;;;22.80;62.40;;;;;;4963309;29;20051;-81
2022/05/22 09:42:23;;;;;;;10.55;2.85;;;23.10;61.70;;;;;;4945608;29;20035;-80
2022/05/22 09:45:15;;;;;;;9.70;2.75;;;22.70;66.60;;;;;;4960386;28;20070;-80
2022/05/22 09:47:57;;;;;;;10.05;2.78;;;23.80;62.70;;;;;;4972696;29;20148;-81
2022/05/22 09:50:40;;;;;;;10.90;2.63;;;26.80;66.90;;;;;;4941759;29;20420;-81
2022/05/22 09:53:23;;;;;;;8.40;2.67;;;23.60;62.30;;;;;;4942107;29;20047;-80
2022/05/22 09:55:55;;;;;;;10.27;2.80;;;22.80;60.50;;;;;;4941577;29;20058;-80
2022/05/22 09:59:15;;;;;;;6.50;2.40;;;22.80;61.00;;;;;;4941400;29;20055;-80
2022/05/22 10:01:44;;;;;;;8.40;2.63;;;22.80;63.90;;;;;;4918210;29;20055;-80
2022/05/22 10:04:41;;;;;;;8.48;2.42;;;24.80;67.40;;;;;;4901990;29;20146;-82
2022/05/22 10:07:25;;;;;;;12.13;2.50;;;22.90;62.60;;;;;;4902485;29;20138;-80
2022/05/22 10:10:15;;;;;;;7.72;2.17;;;22.50;67.10;;;;;;4917529;29;20064;-80
2022/05/22 10:12:53;;;;;;;8.73;2.40;;;20.30;65.40;;;;;;4902670;29;20070;-80
2022/05/22 10:15:21;;;;;;;9.40;2.40;;;23.90;69.00;;;;;;4903384;29;20060;-81
2022/05/22 10:18:08;;;;;;;8.57;2.70;;;20.90;76.80;;;;;;4917623;29;20088;-80
2022/05/22 10:20:52;;;;;;;8.95;2.30;;;21.10;72.00;;;;;;4902086;29;20099;-79
2022/05/22 10:23:38;;;;;;;11.77;2.70;;;23.80;73.60;;;;;;4918098;29;20063;-79
2022/05/22 10:26:50;;;;;;;11.82;2.60;;;18.20;67.90;;;;;;4917024;29;20064;-79
2022/05/22 10:29:25;;;;;;;9.43;2.90;;;19.30;66.40;;;;;;4877007;29;20048;-80
2022/05/22 10:32:09;;;;;;;7.05;2.55;;;21.30;74.30;;;;;;4916731;29;20063;-80
2022/05/22 10:34:35;;;;;;;7.80;2.47;;;;;;;;;;4885702;29;20092;-80
2022/05/22 10:37:26;;;;;;;16.83;2.65;;;21.40;68.40;;;;;;4919318;29;20517;-80
2022/05/22 10:39:57;;;;;;;9.32;2.40;;;;;;;;;;4957031;29;20059;-81
2022/05/22 10:43:04;;;;;;;7.95;2.40;;;21.60;67.80;;;;;;4940467;29;20482;-81
2022/05/22 10:45:23;;;;;;;8.18;2.47;;;;;;;;;;4937314;29;20063;-81
2022/05/22 10:47:51;;;;;;;6.78;2.15;;;22.00;66.00;;;;;;4940125;29;20056;-81
2022/05/22 10:50:26;;;;;;;7.47;2.30;;;25.10;69.00;;;;;;4957140;29;20520;-80
2022/05/22 10:52:53;;;;;;;8.50;2.38;;;22.10;63.20;;;;;;4940141;29;20058;-81
2022/05/22 10:55:39;;;;;;;7.35;2.30;;;21.30;70.40;;;;;;4939184;29;20383;-81
2022/05/22 10:58:27;;;;;;;6.85;2.30;;;25.40;67.30;;;;;;4929902;28;20102;-80
2022/05/22 11:01:01;;;;;;;8.23;2.72;;;22.10;64.90;;;;;;4959479;28;20051;-80
2022/05/22 11:03:29;;;;;;;8.65;2.60;;;22.00;66.50;;;;;;4958999;28;20055;-79
2022/05/22 11:05:57;;;;;;;10.70;2.65;;;24.50;68.80;;;;;;4957330;28;20058;-80
2022/05/22 11:08:46;;;;;;;11.18;2.70;;;23.80;67.30;;;;;;4958138;28;20051;-79
2022/05/22 11:11:30;;;;;;;10.10;2.80;;;22.50;68.00;;;;;;4965785;28;20463;-80
2022/05/22 11:14:14;;;;;;;8.02;2.40;;;21.90;71.10;;;;;;4923413;29;20512;-80
2022/05/22 11:16:41;;;;;;;9.30;2.47;;;22.10;71.40;;;;;;4956331;29;20059;-81
2022/05/22 11:19:26;;;;;;;7.40;2.50;;;22.40;69.40;;;;;;4924232;29;20059;-80
2022/05/22 11:22:29;;;;;;;6.47;2.20;;;23.00;68.40;;;;;;4939901;29;20196;-80
2022/05/22 11:25:10;;;;;;;7.15;2.15;;;22.60;67.00;;;;;;4941003;29;20390;-80
2022/05/22 11:27:39;;;;;;;6.47;2.40;;;22.60;67.40;;;;;;4924481;29;20055;-81
2022/05/22 11:30:28;;;;;;;7.93;2.42;;;22.50;66.90;;;;;;4957282;29;20066;-81
2022/05/22 11:33:23;;;;;;;7.55;2.78;;;22.40;65.70;;;;;;4939475;29;20047;-80
2022/05/22 11:36:10;;;;;;;6.85;2.30;;;21.50;66.60;;;;;;4956806;29;20104;-80
2022/05/22 11:38:54;;;;;;;8.23;2.70;;;21.20;70.20;;;;;;4923882;29;20058;-80
2022/05/22 11:41:28;;;;;;;6.57;2.25;;;21.20;65.30;;;;;;4956853;29;20078;-80
2022/05/22 11:43:54;;;;;;;9.40;2.40;;;;;;;;;;4956709;29;20166;-81
2022/05/22 11:46:26;;;;;;;8.00;2.45;;;21.10;68.00;;;;;;4939892;29;20455;-80
2022/05/22 11:48:52;;;;;;;9.80;2.65;;;;;;;;;;4940784;29;20465;-80
2022/05/22 11:51:41;;;;;;;7.53;2.33;;;21.30;67.50;;;;;;4940824;29;20176;-80
2022/05/22 11:54:21;;;;;;;7.90;2.50;;;20.80;68.80;;;;;;4939062;29;20055;-81
2022/05/22 11:57:00;;;;;;;8.95;2.35;;;21.80;65.50;;;;;;4940134;29;20055;-81
2022/05/22 11:59:38;;;;;;;7.03;2.20;;;22.50;71.10;;;;;;4939189;29;20138;-81
2022/05/22 12:02:31;;;;;;;7.53;2.22;;;22.40;65.00;;;;;;4922883;29;20061;-80
2022/05/22 12:05:16;;;;;;;10.73;2.30;;;23.00;62.90;;;;;;4938699;28;20055;-81
2022/05/22 12:08:09;;;;;;;8.20;2.27;;;23.00;63.70;;;;;;4923563;29;20450;-81
2022/05/22 12:10:48;;;;;;;6.90;2.20;;;23.50;61.30;;;;;;4956324;29;20305;-80
2022/05/22 12:13:27;;;;;;;9.13;2.22;;;23.40;67.30;;;;;;4957358;29;20054;-80
2022/05/22 12:16:05;;;;;;;6.40;2.17;;;23.60;60.40;;;;;;4931482;29;20066;-81
2022/05/22 12:19:08;;;;;;;9.13;2.50;;;23.80;60.50;;;;;;4960578;29;20235;-81
2022/05/22 12:21:55;;;;;;;8.00;2.47;;;23.80;58.40;;;;;;4940075;29;20206;-80
2022/05/22 12:24:28;;;;;;;6.90;2.30;;;21.50;57.60;;;;;;4939919;29;20055;-81
2022/05/22 12:26:55;;;;;;;6.10;2.30;;;23.70;58.80;;;;;;4939632;29;20055;-79
2022/05/22 12:29:43;;;;;;;7.28;2.30;;;23.70;57.90;;;;;;4956360;29;20494;-78
2022/05/22 12:32:21;;;;;;;7.78;2.30;;;24.00;58.40;;;;;;4956139;29;20039;-79
2022/05/22 12:34:52;;;;;;;9.98;2.45;;;23.70;58.90;;;;;;4956139;29;20081;-77
2022/05/22 12:37:42;;;;;;;8.23;2.40;;;23.30;58.90;;;;;;4956371;29;20055;-78
2022/05/22 12:40:19;;;;;;;7.38;2.33;;;23.10;58.00;;;;;;4923746;29;20402;-78
2022/05/22 12:42:49;;;;;;;8.98;2.58;;;22.60;59.60;;;;;;4957072;29;20051;-78
2022/05/22 12:45:16;;;;;;;6.40;2.20;;;23.70;61.40;;;;;;4941805;29;20497;-79
2022/05/22 12:47:45;;;;;;;10.27;2.40;;;22.10;62.80;;;;;;4935749;29;20048;-78
2022/05/22 12:50:24;;;;;;;10.93;2.35;;;21.90;63.90;;;;;;4971931;29;20047;-78
2022/05/22 12:52:53;;;;;;;8.10;2.30;;;21.80;72.30;;;;;;4940742;29;20619;-79
2022/05/22 12:55:27;;;;;;;6.85;2.10;;;21.80;64.60;;;;;;4923676;29;20061;-79
2022/05/22 12:57:56;;;;;;;5.88;2.40;;;24.70;67.60;;;;;;4957623;29;20051;-79
2022/05/22 13:00:40;;;;;;;8.75;2.65;;;24.00;67.40;;;;;;4955718;29;20059;-80
2022/05/22 13:03:20;;;;;;;7.43;2.30;;;21.50;64.80;;;;;;4938642;29;20059;-79
2022/05/22 13:06:00;;;;;;;7.68;2.30;;;24.40;67.30;;;;;;4924295;29;20087;-79
2022/05/22 13:08:33;;;;;;;9.45;2.58;;;21.20;65.10;;;;;;4922330;29;20060;-79
2022/05/22 13:11:00;;;;;;;9.80;2.30;;;;;;;;;;4938434;29;20055;-80
2022/05/22 13:13:31;;;;;;;8.70;2.17;;;21.00;66.20;;;;;;4956712;29;20047;-79
2022/05/22 13:16:08;;;;;;;7.68;2.28;;;24.10;71.00;;;;;;4943064;29;20043;-78
2022/05/22 13:18:49;;;;;;;8.13;2.30;;;20.80;69.10;;;;;;4948093;29;20102;-79
2022/05/22 13:21:40;;;;;;;9.07;2.63;;;20.70;69.80;;;;;;4944770;29;20047;-78
2022/05/22 13:24:28;;;;;;;7.75;2.35;;;21.30;71.50;;;;;;4942988;29;20518;-78
2022/05/22 13:27:03;;;;;;;10.30;2.33;;;23.70;71.70;;;;;;4943856;29;20048;-78
2022/05/22 13:29:56;;;;;;;8.75;2.67;;;20.80;68.90;;;;;;4926794;29;20058;-80
2022/05/22 13:32:40;;;;;;;5.78;2.15;;;20.60;77.50;;;;;;4925918;29;20051;-80
2022/05/22 13:35:36;;;;;;;7.68;2.50;;;20.70;69.80;;;;;;4942643;29;20051;-79
2022/05/22 13:38:04;;;;;;;6.65;1.98;;;22.90;70.00;;;;;;4925864;29;20193;-80
2022/05/22 13:40:32;;;;;;;9.93;2.30;;;;;;;;;;4944689;28;20114;-80
2022/05/22 13:42:59;;;;;;;5.40;2.03;;;;;;;;;;4979398;28;20043;-79
2022/05/22 13:45:32;;;;;;;6.68;2.10;;;20.60;73.50;;;;;;4974467;28;20493;-78
2022/05/22 13:49:00;;;;;;;7.38;2.30;;;24.50;70.10;;;;;;4961217;28;20050;-80
2022/05/22 13:54:48;;;;;;;6.40;2.10;;;21.90;64.00;;;;;;4898944;29;20063;-79
2022/05/22 13:57:21;;;;;;;5.97;2.10;;;22.50;62.80;;;;;;4898973;29;20048;-80
2022/05/22 13:59:54;;;;;;;6.20;2.08;;;22.40;60.60;;;;;;4883984;29;20104;-80
2022/05/22 14:02:28;;;;;;;9.70;2.28;;;22.40;61.40;;;;;;4883094;29;20512;-81
2022/05/22 14:04:56;;;;;;;6.45;2.35;;;23.00;60.70;;;;;;4883570;29;20056;-80
2022/05/22 14:07:28;;;;;;;7.25;2.35;;;24.40;62.60;;;;;;4868708;29;20059;-78
2022/05/22 14:09:55;;;;;;;6.97;2.30;;;23.20;58.70;;;;;;4868967;29;20103;-79
2022/05/22 14:12:41;;;;;;;9.27;2.40;;;22.70;60.00;;;;;;4884039;29;20053;-80
2022/05/22 14:15:23;;;;;;;5.90;2.10;;;24.30;60.20;;;;;;4884248;29;20499;-79
2022/05/22 14:17:51;;;;;;;8.52;2.17;;;23.60;58.70;;;;;;4868444;29;20132;-81
2022/05/22 14:20:21;;;;;;;7.03;2.20;;;23.30;57.60;;;;;;4869544;29;20064;-79
2022/05/22 14:23:05;;;;;;;5.82;2.15;;;23.50;58.30;;;;;;4868537;29;20059;-80
2022/05/22 14:25:35;;;;;;;5.93;2.08;;;;;;;;;;4882608;29;20063;-80
2022/05/22 14:28:04;;;;;;;6.85;2.38;;;23.40;56.40;;;;;;4952550;28;20105;-80
2022/05/22 14:30:31;;;;;;;6.93;2.10;;;;;;;;;;4941786;28;20406;-80
2022/05/22 14:33:00;;;;;;;9.80;2.10;;;23.90;57.00;;;;;;4958168;28;20047;-81
2022/05/22 14:35:39;;;;;;;7.35;2.00;;;23.10;57.90;;;;;;4943134;28;20125;-80
2022/05/22 14:38:23;;;;;;;7.68;1.95;;;24.50;54.60;;;;;;4959093;28;20081;-81
2022/05/22 14:40:58;;;;;;;3.63;1.80;;;24.10;55.70;;;;;;4976937;28;20093;-81
2022/05/22 14:43:32;;;;;;;6.80;2.10;;;24.40;55.20;;;;;;4943467;28;20109;-80
2022/05/22 14:45:59;;;;;;;6.97;2.03;;;23.50;58.70;;;;;;4943371;28;20129;-80
2022/05/22 14:48:32;;;;;;;8.82;2.33;;;23.80;53.00;;;;;;4943407;28;20051;-80
2022/05/22 14:51:23;;;;;;;6.88;2.38;;;23.70;54.60;;;;;;4942795;28;20474;-81
2022/05/22 14:53:54;;;;;;;4.93;2.10;;;23.50;53.40;;;;;;4957801;28;20050;-80
2022/05/22 14:56:23;;;;;;;5.80;2.00;;;23.30;53.40;;;;;;4969121;28;20062;-80
2022/05/22 14:58:58;;;;;;;5.85;2.42;;;24.30;55.10;;;;;;4960420;28;20047;-81
2022/05/22 15:01:34;;;;;;;6.65;2.17;;;23.30;53.10;;;;;;4955610;29;20122;-80
2022/05/22 15:04:02;;;;;;;10.18;2.25;;;23.20;53.70;;;;;;4955485;29;20055;-81
2022/05/22 15:06:32;;;;;;;4.50;1.92;;;23.00;54.80;;;;;;4955523;29;20090;-81
2022/05/22 15:09:05;;;;;;;4.05;1.88;;;22.90;56.80;;;;;;4940041;29;20043;-81
2022/05/22 15:11:43;;;;;;;5.20;1.95;;;26.30;61.30;;;;;;4939456;29;20050;-81
2022/05/22 15:14:15;;;;;;;7.15;2.00;;;20.90;55.60;;;;;;4955459;29;20055;-81
2022/05/22 15:16:42;;;;;;;6.78;2.72;;;25.60;59.20;;;;;;4957603;28;20126;-81
2022/05/22 15:25:39;;;;;;;7.87;2.10;;;22.60;56.00;;;;;;4975712;28;20063;-79
2022/05/22 15:28:23;;;;;;;7.43;2.00;;;22.00;56.50;;;;;;4974996;28;20286;-79
2022/05/22 15:31:01;;;;;;;8.60;2.60;;;22.10;55.90;;;;;;4957851;28;20069;-79
2022/05/22 15:33:49;;;;;;;5.63;2.13;;;22.10;56.50;;;;;;4942317;28;20106;-79
2022/05/22 15:36:21;;;;;;;6.43;2.85;;;22.20;57.40;;;;;;4975838;28;20168;-80
2022/05/22 15:38:51;;;;;;;7.43;2.33;;;22.40;59.20;;;;;;4959139;28;20054;-80
2022/05/22 15:41:34;;;;;;;7.55;2.13;;;25.40;61.50;;;;;;4941504;28;20059;-80
2022/05/22 15:44:17;;;;;;;4.70;1.88;;;23.20;56.60;;;;;;4942568;28;20450;-79
2022/05/22 15:46:49;;;;;;;5.15;1.95;;;22.80;56.20;;;;;;4957969;28;20054;-80
2022/05/22 15:52:24;;;;;;;6.30;1.90;;;23.70;55.90;;;;;;4975260;28;20468;-79
2022/05/22 15:54:50;;;;;;;8.75;2.00;;;22.40;56.40;;;;;;4975000;28;20148;-79
2022/05/22 15:57:17;;;;;;;6.03;1.95;;;25.00;60.00;;;;;;4975264;28;20134;-80
2022/05/22 15:59:44;;;;;;;6.00;1.95;;;24.00;57.90;;;;;;4974772;28;20429;-78
2022/05/22 16:02:22;;;;;;;7.70;1.90;;;21.30;60.10;;;;;;4957839;28;20470;-80
2022/05/22 16:04:48;;;;;;;5.68;1.83;;;21.90;56.50;;;;;;4975126;28;20051;-80
2022/05/22 16:07:15;;;;;;;7.75;2.53;;;21.80;56.40;;;;;;4957562;28;20102;-80
2022/05/22 16:09:42;;;;;;;6.45;2.10;;;21.60;56.30;;;;;;4974598;28;20046;-81
2022/05/22 16:12:08;;;;;;;5.00;2.00;;;24.50;60.90;;;;;;4939401;28;20449;-81
2022/05/22 16:14:34;;;;;;;6.65;2.20;;;;;;;;;;4938569;29;20091;-80
2022/05/22 16:17:00;;;;;;;7.75;2.10;;;21.60;56.40;;;;;;4967469;28;20113;-80
2022/05/22 16:19:36;;;;;;;6.63;2.00;;;21.00;57.50;;;;;;4955952;28;20062;-80
2022/05/22 16:22:03;;;;;;;5.53;2.00;;;21.80;60.20;;;;;;4924432;28;20051;-80
2022/05/22 16:24:28;;;;;;;6.63;2.30;;;21.80;58.50;;;;;;4974120;28;20047;-81
2022/05/22 16:26:55;;;;;;;7.80;2.30;;;22.10;61.80;;;;;;4964577;28;20043;-80
2022/05/22 16:29:21;;;;;;;6.10;2.00;;;;;;;;;;4936735;29;20423;-80
2022/05/22 16:31:47;;;;;;;8.23;2.10;;;21.90;57.80;;;;;;4937034;29;20089;-80
2022/05/22 16:34:17;;;;;;;5.55;2.10;;;21.30;65.10;;;;;;4936817;29;20094;-80
2022/05/22 16:36:43;;;;;;;9.10;2.00;;;24.40;61.20;;;;;;4937190;29;20103;-81
2022/05/22 16:39:08;;;;;;;5.90;1.95;;;21.60;61.10;;;;;;4937038;29;20055;-80
2022/05/22 16:41:35;;;;;;;8.18;1.70;;;23.40;62.10;;;;;;4954745;29;20098;-80
2022/05/22 16:44:00;;;;;;;6.15;2.00;;;21.80;61.60;;;;;;4954110;29;20066;-80
2022/05/22 16:46:27;;;;;;;9.07;2.22;;;21.20;67.00;;;;;;4921376;29;20056;-80
2022/05/22 16:54:22;;;;;;;8.97;2.20;;;21.80;61.00;;;;;;4961798;29;20055;-79
2022/05/22 16:56:48;;;;;;;5.65;1.95;;;21.70;62.10;;;;;;4941590;29;20123;-80
2022/05/22 16:59:15;;;;;;;6.35;2.05;;;22.60;62.80;;;;;;4942198;29;20058;-81
2022/05/22 17:01:41;;;;;;;6.75;2.20;;;24.10;63.90;;;;;;4960567;29;20062;-79
2022/05/22 17:04:11;;;;;;;7.72;2.15;;;23.30;62.70;;;;;;4942374;28;20059;-78
2022/05/22 17:06:41;;;;;;;9.75;2.35;;;24.00;63.00;;;;;;4963289;28;20141;-79
2022/05/22 17:09:11;;;;;;;6.03;2.10;;;23.20;63.10;;;;;;4982743;28;20448;-77
2022/05/22 17:11:59;;;;;;;6.38;2.13;;;20.50;61.90;;;;;;4989090;28;20058;-79
2022/05/22 17:14:31;;;;;;;6.90;2.05;;;21.00;62.50;;;;;;4980379;28;20121;-80
2022/05/22 17:16:59;;;;;;;6.07;2.00;;;19.50;62.20;;;;;;4959428;28;20063;-78
2022/05/22 17:19:27;;;;;;;7.95;2.50;;;22.10;63.10;;;;;;4976467;28;20062;-78
2022/05/22 17:22:10;;;;;;;7.05;2.13;;;21.00;62.90;;;;;;4976872;28;20058;-79
2022/05/22 17:24:58;;;;;;;7.65;2.58;;;21.00;62.30;;;;;;4944964;28;20062;-80
2022/05/22 17:27:47;;;;;;;7.45;2.05;;;21.00;62.10;;;;;;4959579;28;20066;-79
2022/05/22 17:30:15;;;;;;;7.03;2.10;;;20.70;62.50;;;;;;4957301;28;20387;-79
2022/05/22 17:32:41;;;;;;;6.82;2.20;;;21.70;63.90;;;;;;4976992;28;20109;-78
2022/05/22 17:35:08;;;;;;;5.45;2.17;;;20.70;63.70;;;;;;4975969;28;20050;-79
2022/05/22 17:37:37;;;;;;;8.65;2.42;;;20.60;64.20;;;;;;4976579;28;20069;-79
2022/05/22 17:40:12;;;;;;;8.02;2.10;;;20.60;64.10;;;;;;4957798;28;20073;-79
2022/05/22 17:42:37;;;;;;;10.02;2.20;;;20.60;64.80;;;;;;4976453;28;20043;-79
2022/05/22 17:45:03;;;;;;;7.20;2.30;;;20.50;64.90;;;;;;4942947;28;20481;-79
2022/05/22 17:47:29;;;;;;;6.75;2.30;;;20.50;65.50;;;;;;4959431;28;20051;-79
2022/05/22 17:49:55;;;;;;;7.78;2.30;;;20.50;66.10;;;;;;4976073;28;20126;-79
2022/05/22 17:52:21;;;;;;;11.27;2.30;;;20.50;66.40;;;;;;4959227;28;20051;-78
2022/05/22 17:54:48;;;;;;;6.32;2.38;;;22.90;68.50;;;;;;4958733;28;20339;-78
2022/05/22 17:57:18;;;;;;;6.72;2.17;;;20.30;67.70;;;;;;4958809;28;20055;-78
2022/05/22 17:59:44;;;;;;;7.47;2.35;;;23.40;70.20;;;;;;4976386;28;20070;-78
2022/05/22 18:02:15;;;;;;;7.15;2.28;;;19.60;73.00;;;;;;4958576;28;20148;-79
2022/05/22 18:04:41;;;;;;;10.48;2.60;;;20.70;70.40;;;;;;4942336;28;20061;-78
2022/05/22 18:07:15;;;;;;;6.28;2.08;;;20.40;73.10;;;;;;4975905;28;20398;-78
2022/05/22 18:09:42;;;;;;;9.05;2.03;;;;;;;;;;4958104;28;20093;-79
2022/05/22 18:17:36;;;;;;;6.13;2.10;;;19.70;78.40;;;;;;4956795;29;20391;-78
2022/05/22 18:20:08;;;;;;;7.05;2.10;;;21.20;72.60;;;;;;4956957;29;20065;-78
2022/05/22 18:22:34;;;;;;;7.72;2.60;;;;;;;;;;4940219;29;20062;-78